Time;durP1;ratioP1;P1;durP2;ratioP2;P2;SDS_P1;SDS_P2;PMS_P1;PMS_P2;Temp;Humidity;BMP_temperature;BMP_pressure;BME280_temperature;BME280_humidity;BME280_pressure;Samples;Min_cycle;Max_cycle;Signal;HPM_P1;HPM_P2
2023/03/03 00:01:19;;;;;;;16.53;5.23;;;2.50;99.90;;;;;;4995479;28;20054;-69
2023/03/03 00:03:45;;;;;;;16.95;5.43;;;2.50;99.90;;;;;;4979594;28;20072;-69
2023/03/03 00:06:13;;;;;;;19.80;5.90;;;2.50;99.90;;;;;;5001461;28;20672;-69
2023/03/03 00:08:40;;;;;;;21.50;6.45;;;2.40;99.90;;;;;;5018060;28;20594;-69
2023/03/03 00:11:06;;;;;;;14.57;5.97;;;2.40;99.90;;;;;;5002055;28;20089;-69
2023/03/03 00:13:37;;;;;;;;;;;2.40;99.90;;;;;;4999603;28;20046;-69
2023/03/03 00:16:16;;;;;;;16.25;5.05;;;2.30;99.90;;;;;;4990422;28;19928;-69
2023/03/03 00:18:44;;;;;;;18.80;5.53;;;2.30;99.90;;;;;;5000061;28;20105;-69
2023/03/03 00:21:39;;;;;;;23.85;5.57;;;2.20;99.90;;;;;;5017281;28;20046;-69
2023/03/03 00:24:18;;;;;;;18.05;5.57;;;2.20;99.90;;;;;;4996819;28;20053;-69
2023/03/03 00:26:56;;;;;;;16.17;4.93;;;2.20;99.90;;;;;;4998949;28;20439;-69
2023/03/03 00:29:34;;;;;;;;;;;2.10;99.90;;;;;;5006881;28;20046;-69
2023/03/03 00:32:03;;;;;;;;;;;2.10;99.90;;;;;;5016883;28;19921;-69
2023/03/03 00:34:30;;;;;;;17.35;4.38;;;2.00;99.90;;;;;;4997360;28;19929;-69
2023/03/03 00:36:57;;;;;;;;;;;2.00;99.90;;;;;;5007676;28;20034;-69
2023/03/03 00:39:34;;;;;;;26.67;5.03;;;1.90;99.90;;;;;;5005983;28;20011;-69
2023/03/03 00:42:03;;;;;;;21.75;4.72;;;1.90;99.90;;;;;;5018032;28;20045;-69
2023/03/03 00:44:42;;;;;;;19.23;5.10;;;1.90;99.90;;;;;;4984910;28;20056;-69
2023/03/03 00:47:32;;;;;;;28.45;4.85;;;1.80;99.90;;;;;;5000658;28;20044;-69
2023/03/03 00:50:09;;;;;;;18.10;4.72;;;1.80;99.90;;;;;;5021311;28;20049;-69
2023/03/03 00:52:44;;;;;;;20.73;3.88;;;1.70;99.90;;;;;;5001748;28;20052;-69
2023/03/03 00:55:10;;;;;;;17.90;4.80;;;1.70;99.90;;;;;;4990513;28;20065;-69
2023/03/03 00:57:36;;;;;;;;;;;1.70;99.90;;;;;;4994791;28;20038;-69
2023/03/03 01:00:02;;;;;;;23.63;4.80;;;1.60;99.90;;;;;;4998581;28;19940;-69
2023/03/03 01:02:29;;;;;;;19.40;4.25;;;1.60;99.90;;;;;;4996900;28;20042;-69
2023/03/03 01:04:55;;;;;;;13.20;4.75;;;1.50;99.90;;;;;;4992646;28;20053;-69
2023/03/03 01:07:21;;;;;;;20.35;4.28;;;1.50;99.90;;;;;;5012851;28;20038;-69
2023/03/03 01:09:46;;;;;;;14.35;3.90;;;1.50;99.90;;;;;;5001903;28;20351;-69
2023/03/03 01:12:12;;;;;;;11.63;4.47;;;1.50;99.90;;;;;;5000473;28;20037;-69
2023/03/03 01:14:38;;;;;;;21.70;4.20;;;1.50;99.90;;;;;;4998908;28;20070;-69
2023/03/03 01:17:04;;;;;;;14.88;4.22;;;1.40;99.90;;;;;;5003128;28;20417;-69
2023/03/03 01:19:30;;;;;;;10.67;4.37;;;1.40;99.90;;;;;;5009252;28;20053;-69
2023/03/03 01:21:55;;;;;;;18.97;4.33;;;1.40;99.90;;;;;;4997333;28;20050;-69
2023/03/03 01:24:21;;;;;;;12.73;4.33;;;1.30;99.90;;;;;;4980644;28;20562;-68
2023/03/03 01:26:47;;;;;;;7.97;4.03;;;1.30;99.90;;;;;;4998643;28;20464;-69
2023/03/03 01:29:12;;;;;;;10.93;4.40;;;1.30;99.90;;;;;;4997663;28;20049;-69
2023/03/03 01:31:39;;;;;;;15.33;4.50;;;1.20;99.90;;;;;;4997369;28;20556;-69
2023/03/03 01:34:06;;;;;;;16.10;5.18;;;1.20;99.90;;;;;;5000671;28;20056;-69
2023/03/03 01:36:32;;;;;;;13.77;5.50;;;1.20;99.90;;;;;;4980201;28;20052;-69
2023/03/03 01:38:58;;;;;;;;;;;1.20;99.90;;;;;;4995211;28;20076;-69
2023/03/03 01:41:28;;;;;;;15.70;6.93;;;1.20;99.90;;;;;;5003112;28;19921;-69
2023/03/03 01:43:55;;;;;;;17.92;6.22;;;1.20;99.90;;;;;;5000854;28;20054;-69
2023/03/03 01:46:23;;;;;;;12.52;5.80;;;1.20;99.90;;;;;;5002241;28;20444;-69
2023/03/03 01:48:55;;;;;;;14.23;5.70;;;1.10;99.90;;;;;;4999299;28;20524;-69
2023/03/03 01:51:31;;;;;;;13.27;4.97;;;1.10;99.90;;;;;;5001111;28;20050;-69
2023/03/03 01:54:00;;;;;;;17.80;4.90;;;1.20;99.90;;;;;;5000764;28;20794;-69
2023/03/03 01:56:27;;;;;;;10.27;5.07;;;1.10;99.90;;;;;;4982812;28;20038;-69
2023/03/03 01:58:59;;;;;;;13.55;5.15;;;1.10;99.90;;;;;;4999648;28;20128;-69
2023/03/03 02:01:27;;;;;;;9.77;5.07;;;1.10;99.90;;;;;;4999356;28;20117;-69
2023/03/03 02:03:53;;;;;;;9.85;4.55;;;1.10;99.90;;;;;;5015958;28;20433;-69
2023/03/03 02:06:22;;;;;;;10.85;4.80;;;1.10;99.90;;;;;;5000390;28;20290;-68
2023/03/03 02:09:07;;;;;;;11.60;4.85;;;1.10;99.90;;;;;;5011416;28;20099;-68
2023/03/03 02:11:36;;;;;;;8.93;4.15;;;1.00;99.90;;;;;;4998170;28;20042;-68
2023/03/03 02:14:01;;;;;;;6.65;3.92;;;1.00;99.90;;;;;;4998007;28;20409;-68
2023/03/03 02:16:28;;;;;;;6.93;3.53;;;1.00;99.90;;;;;;4998714;28;20058;-68
2023/03/03 02:18:53;;;;;;;7.82;3.60;;;1.00;99.90;;;;;;5005178;28;20448;-68
2023/03/03 02:21:22;;;;;;;6.50;3.77;;;1.00;99.90;;;;;;4999288;28;20051;-68
2023/03/03 02:23:54;;;;;;;6.78;4.03;;;1.00;99.90;;;;;;4998444;28;20042;-68
2023/03/03 02:26:25;;;;;;;8.50;4.07;;;1.00;99.90;;;;;;4998669;28;20078;-68
2023/03/03 02:28:51;;;;;;;6.22;3.72;;;0.90;99.90;;;;;;4999887;28;20099;-68
2023/03/03 02:31:21;;;;;;;7.87;3.87;;;0.90;99.90;;;;;;4998202;28;20409;-68
2023/03/03 02:33:49;;;;;;;6.63;3.63;;;0.90;99.90;;;;;;4999682;28;20453;-68
2023/03/03 02:36:17;;;;;;;6.18;3.30;;;0.90;99.90;;;;;;4999074;28;20095;-68
2023/03/03 02:39:09;;;;;;;5.38;3.25;;;0.90;99.90;;;;;;4999274;28;20053;-68
2023/03/03 02:41:35;;;;;;;7.60;4.30;;;0.90;99.90;;;;;;5001635;28;20495;-67
2023/03/03 02:44:07;;;;;;;7.20;4.03;;;0.80;99.90;;;;;;4996623;28;20049;-69
2023/03/03 02:46:39;;;;;;;7.57;3.47;;;0.80;99.90;;;;;;4986932;28;20073;-69
2023/03/03 02:49:07;;;;;;;6.63;3.72;;;0.80;99.90;;;;;;5015047;28;20053;-69
2023/03/03 02:51:33;;;;;;;8.05;4.03;;;0.90;99.90;;;;;;4993541;28;20053;-69
2023/03/03 02:53:59;;;;;;;;;;;0.90;99.90;;;;;;4998298;28;20196;-69
2023/03/03 02:56:25;;;;;;;7.20;3.90;;;0.80;99.90;;;;;;4998838;28;20008;-69
2023/03/03 02:58:51;;;;;;;6.60;3.47;;;0.80;99.90;;;;;;5005561;28;20046;-69
2023/03/03 03:01:17;;;;;;;8.50;3.57;;;0.80;99.90;;;;;;5003157;28;20058;-69
2023/03/03 03:03:43;;;;;;;6.25;3.75;;;0.80;99.90;;;;;;4997676;28;20069;-69
2023/03/03 03:06:09;;;;;;;8.15;3.50;;;0.80;99.90;;;;;;5004757;28;20493;-70
2023/03/03 03:08:35;;;;;;;8.50;3.87;;;0.80;99.90;;;;;;5000181;28;20121;-69
2023/03/03 03:11:01;;;;;;;6.30;4.20;;;0.80;99.90;;;;;;5000195;28;20046;-69
2023/03/03 03:13:27;;;;;;;9.52;4.47;;;0.80;99.90;;;;;;5002093;28;20041;-69
2023/03/03 03:15:53;;;;;;;8.07;4.10;;;0.80;99.90;;;;;;5000650;28;20068;-69
2023/03/03 03:18:18;;;;;;;7.30;3.60;;;0.80;99.90;;;;;;5002330;28;20050;-69
2023/03/03 03:20:44;;;;;;;8.17;4.27;;;0.80;99.90;;;;;;4999697;28;20405;-69
2023/03/03 03:23:11;;;;;;;7.70;4.25;;;0.80;99.90;;;;;;4994512;28;20033;-69
2023/03/03 03:25:44;;;;;;;8.90;4.18;;;0.80;99.90;;;;;;5003286;28;20432;-69
2023/03/03 03:28:13;;;;;;;9.77;4.63;;;0.80;99.90;;;;;;4997730;28;20049;-69
2023/03/03 03:30:40;;;;;;;6.88;4.30;;;0.80;99.90;;;;;;4997799;28;20048;-69
2023/03/03 03:33:05;;;;;;;7.78;4.20;;;0.70;99.90;;;;;;5007994;28;20045;-69
2023/03/03 03:35:32;;;;;;;8.37;4.17;;;0.80;99.90;;;;;;5001722;28;20485;-69
2023/03/03 03:37:58;;;;;;;8.85;4.35;;;0.70;99.90;;;;;;4994932;28;20056;-69
2023/03/03 03:40:25;;;;;;;6.60;3.87;;;0.70;99.90;;;;;;4997839;28;20046;-69
2023/03/03 03:42:54;;;;;;;9.93;4.53;;;0.70;99.90;;;;;;5005522;28;20566;-69
2023/03/03 03:45:20;;;;;;;9.43;4.68;;;0.70;99.90;;;;;;5009752;28;20124;-69
2023/03/03 03:47:45;;;;;;;9.97;4.53;;;0.80;99.90;;;;;;5007347;28;20141;-69
2023/03/03 03:50:11;;;;;;;10.67;4.93;;;0.70;99.90;;;;;;5017673;28;20266;-69
2023/03/03 03:52:37;;;;;;;8.48;4.53;;;0.80;99.90;;;;;;5003699;28;20038;-69
2023/03/03 03:55:04;;;;;;;9.87;4.80;;;0.70;99.90;;;;;;5013691;28;20096;-69
2023/03/03 03:57:29;;;;;;;;;;;0.80;99.90;;;;;;5004943;28;20069;-69
2023/03/03 03:59:55;;;;;;;8.27;4.35;;;0.70;99.90;;;;;;5015977;28;19960;-69
2023/03/03 04:02:20;;;;;;;8.63;4.47;;;0.70;99.90;;;;;;5006322;28;20044;-69
2023/03/03 04:04:46;;;;;;;10.67;4.90;;;0.80;99.90;;;;;;5012940;28;20053;-69
2023/03/03 04:07:12;;;;;;;9.53;4.50;;;0.80;99.90;;;;;;5023266;28;20038;-67
2023/03/03 04:09:38;;;;;;;10.32;5.03;;;0.70;99.90;;;;;;5010910;28;20077;-68
2023/03/03 04:12:04;;;;;;;8.73;4.47;;;0.70;99.90;;;;;;5007709;28;20472;-67
2023/03/03 04:14:29;;;;;;;7.10;3.70;;;0.70;99.90;;;;;;5008054;28;20068;-67
2023/03/03 04:16:55;;;;;;;8.17;3.90;;;0.70;99.90;;;;;;5012375;28;20038;-68
2023/03/03 04:19:21;;;;;;;8.10;4.07;;;0.70;99.90;;;;;;5010673;28;20038;-67
2023/03/03 04:21:47;;;;;;;9.20;4.28;;;0.70;99.90;;;;;;5000690;28;20042;-67
2023/03/03 04:24:13;;;;;;;6.90;3.30;;;0.70;99.90;;;;;;5003474;28;20060;-68
2023/03/03 04:26:38;;;;;;;7.47;4.13;;;0.70;99.90;;;;;;5005644;28;20050;-68
2023/03/03 04:29:04;;;;;;;7.40;3.88;;;0.70;99.90;;;;;;5004503;28;20053;-68
2023/03/03 04:31:30;;;;;;;7.80;3.90;;;0.70;99.90;;;;;;5023712;28;20053;-67
2023/03/03 04:33:56;;;;;;;6.13;3.60;;;0.70;99.90;;;;;;5002624;28;20047;-68
2023/03/03 04:36:22;;;;;;;6.03;3.47;;;0.70;99.90;;;;;;5009688;28;20275;-67
2023/03/03 04:38:48;;;;;;;7.03;3.50;;;0.70;99.90;;;;;;4993548;28;20617;-67
2023/03/03 04:41:14;;;;;;;7.25;3.75;;;0.70;99.90;;;;;;5006719;28;20046;-68
2023/03/03 04:43:40;;;;;;;7.28;3.80;;;0.70;99.90;;;;;;5011811;28;20405;-68
2023/03/03 04:46:05;;;;;;;6.72;3.45;;;0.70;99.90;;;;;;5006439;28;20040;-67
2023/03/03 04:48:31;;;;;;;6.57;3.53;;;0.70;99.90;;;;;;5003138;28;20121;-68
2023/03/03 04:50:56;;;;;;;7.03;3.17;;;0.70;99.90;;;;;;5010282;28;20044;-67
2023/03/03 04:53:22;;;;;;;8.47;3.57;;;0.70;99.90;;;;;;5009470;28;20111;-67
2023/03/03 04:55:52;;;;;;;6.87;3.50;;;0.60;99.90;;;;;;5006784;28;20034;-68
2023/03/03 04:58:19;;;;;;;7.15;3.28;;;0.60;99.90;;;;;;4999794;28;20038;-67
2023/03/03 05:00:52;;;;;;;;;;;0.60;99.90;;;;;;5008463;28;20132;-68
2023/03/03 05:03:18;;;;;;;4.88;2.78;;;0.60;99.90;;;;;;5005929;28;19929;-68
2023/03/03 05:05:45;;;;;;;7.13;3.53;;;0.60;99.90;;;;;;5001211;28;20399;-67
2023/03/03 05:08:11;;;;;;;5.70;3.15;;;0.60;99.90;;;;;;4997416;28;20053;-67
2023/03/03 05:10:37;;;;;;;6.57;3.47;;;0.60;99.90;;;;;;5007498;28;20653;-67
2023/03/03 05:13:03;;;;;;;7.72;3.38;;;0.60;99.90;;;;;;5007332;28;20092;-67
2023/03/03 05:15:29;;;;;;;7.55;3.40;;;0.60;99.90;;;;;;5005977;28;20068;-67
2023/03/03 05:17:55;;;;;;;4.57;2.95;;;0.60;99.90;;;;;;5002126;28;20078;-67
2023/03/03 05:20:22;;;;;;;8.47;3.93;;;0.60;99.90;;;;;;5007752;28;20456;-67
2023/03/03 05:22:47;;;;;;;5.05;2.92;;;0.60;99.90;;;;;;5000037;28;20034;-67
2023/03/03 05:25:13;;;;;;;7.10;3.30;;;0.60;99.90;;;;;;5007127;28;20137;-67
2023/03/03 05:27:39;;;;;;;8.60;2.90;;;0.60;99.90;;;;;;5008167;28;20495;-67
2023/03/03 05:30:05;;;;;;;7.07;3.60;;;0.60;99.90;;;;;;5002937;28;20324;-67
2023/03/03 05:32:31;;;;;;;6.65;3.45;;;0.70;99.90;;;;;;5001974;28;20133;-67
2023/03/03 05:34:57;;;;;;;5.80;3.13;;;0.60;99.90;;;;;;5005907;28;20513;-67
2023/03/03 05:37:23;;;;;;;5.57;2.60;;;0.70;99.90;;;;;;5007029;28;20048;-67
2023/03/03 05:39:49;;;;;;;4.37;2.77;;;0.70;99.90;;;;;;5000742;28;20049;-67
2023/03/03 05:42:15;;;;;;;4.13;2.53;;;0.70;99.90;;;;;;4998470;28;20375;-67
2023/03/03 05:44:41;;;;;;;5.60;2.93;;;0.70;99.90;;;;;;5009297;28;20049;-67
2023/03/03 05:47:07;;;;;;;8.40;2.70;;;0.70;99.90;;;;;;5002386;28;20041;-68
2023/03/03 05:49:32;;;;;;;4.97;2.97;;;0.70;99.90;;;;;;5003117;28;20207;-68
2023/03/03 05:51:59;;;;;;;4.10;2.63;;;0.60;99.90;;;;;;5004163;28;20605;-68
2023/03/03 05:54:25;;;;;;;4.15;2.53;;;0.70;99.90;;;;;;5007380;28;20144;-68
2023/03/03 05:56:50;;;;;;;5.63;2.70;;;0.70;99.90;;;;;;5003935;28;20128;-68
2023/03/03 05:59:16;;;;;;;6.33;2.73;;;0.70;99.90;;;;;;5003448;28;20514;-68
2023/03/03 06:01:41;;;;;;;4.60;2.67;;;0.70;99.90;;;;;;5006913;28;20037;-67
2023/03/03 06:04:07;;;;;;;5.53;2.80;;;0.60;99.90;;;;;;5000442;28;20066;-68
2023/03/03 06:06:33;;;;;;;4.40;2.50;;;0.70;99.90;;;;;;5004212;28;20046;-68
2023/03/03 06:08:59;;;;;;;8.30;2.40;;;0.60;99.90;;;;;;5022988;28;20049;-67
2023/03/03 06:11:24;;;;;;;5.37;2.43;;;0.60;99.90;;;;;;5009325;28;20461;-68
2023/03/03 06:13:53;;;;;;;5.53;2.70;;;0.60;99.90;;;;;;5007172;28;20041;-68
2023/03/03 06:16:19;;;;;;;5.22;2.92;;;0.60;99.90;;;;;;4999417;28;20065;-68
2023/03/03 06:18:45;;;;;;;7.90;2.70;;;0.60;99.90;;;;;;5007885;28;20399;-68
2023/03/03 06:21:10;;;;;;;7.07;3.50;;;0.60;99.90;;;;;;5004117;28;20050;-68
2023/03/03 06:23:36;;;;;;;5.57;2.80;;;0.60;99.90;;;;;;5008116;28;20066;-68
2023/03/03 06:26:01;;;;;;;5.10;2.87;;;0.60;99.90;;;;;;5004794;28;20398;-68
2023/03/03 06:28:27;;;;;;;4.97;2.77;;;0.60;99.90;;;;;;5006360;28;20053;-68
2023/03/03 06:30:54;;;;;;;5.37;2.50;;;0.50;99.90;;;;;;5000626;28;20041;-68
2023/03/03 06:33:19;;;;;;;8.73;2.95;;;0.50;99.90;;;;;;5005938;28;20481;-68
2023/03/03 06:35:52;;;;;;;5.10;2.70;;;0.50;99.90;;;;;;5001893;28;20092;-68
2023/03/03 06:38:18;;;;;;;6.40;2.78;;;0.50;99.90;;;;;;5001284;28;20498;-68
2023/03/03 06:40:44;;;;;;;4.65;2.60;;;0.50;99.90;;;;;;5004075;28;20041;-68
2023/03/03 06:43:10;;;;;;;4.32;2.30;;;0.40;99.90;;;;;;5004176;28;20046;-68
2023/03/03 06:45:36;;;;;;;7.10;2.83;;;0.40;99.90;;;;;;5003951;28;20128;-68
2023/03/03 06:48:02;;;;;;;5.33;2.63;;;0.50;99.90;;;;;;5006654;28;20297;-68
2023/03/03 06:50:28;;;;;;;7.65;2.95;;;0.40;99.90;;;;;;5004505;28;20530;-68
2023/03/03 06:53:10;;;;;;;13.07;2.63;;;0.40;99.90;;;;;;5006436;28;20141;-68
2023/03/03 06:55:35;;;;;;;5.10;2.70;;;0.40;99.90;;;;;;4996393;28;20478;-68
2023/03/03 06:58:01;;;;;;;4.87;2.53;;;0.40;99.90;;;;;;5005598;28;20121;-68
2023/03/03 07:00:27;;;;;;;6.70;3.80;;;0.50;99.90;;;;;;5005918;28;20482;-68
2023/03/03 07:03:04;;;;;;;4.77;2.63;;;0.50;99.90;;;;;;5004133;28;20197;-68
2023/03/03 07:05:29;;;;;;;5.97;2.60;;;0.50;99.90;;;;;;5004063;28;20065;-68
2023/03/03 07:07:55;;;;;;;5.30;3.47;;;0.60;99.90;;;;;;4999318;28;20295;-67
2023/03/03 07:10:24;;;;;;;13.82;4.38;;;0.60;99.90;;;;;;5001753;28;20125;-68
2023/03/03 07:12:50;;;;;;;12.23;5.68;;;0.60;99.90;;;;;;5007573;28;20096;-68
2023/03/03 07:15:23;;;;;;;9.93;4.30;;;0.70;99.90;;;;;;4986035;28;20058;-68
2023/03/03 07:17:53;;;;;;;9.65;4.18;;;0.70;99.90;;;;;;5003897;28;20048;-68
2023/03/03 07:20:28;;;;;;;7.70;4.25;;;0.80;99.90;;;;;;5005892;28;20034;-68
2023/03/03 07:22:54;;;;;;;9.98;4.25;;;0.90;99.90;;;;;;5001421;28;20037;-68
2023/03/03 07:25:31;;;;;;;7.00;3.93;;;0.90;99.90;;;;;;5003893;28;20092;-68
2023/03/03 07:28:12;;;;;;;7.85;3.90;;;1.00;99.90;;;;;;4989490;28;20050;-68
2023/03/03 07:30:39;;;;;;;7.07;4.00;;;1.00;99.90;;;;;;5004315;28;20738;-67
2023/03/03 07:33:12;;;;;;;5.50;3.50;;;1.10;99.90;;;;;;5004426;28;20046;-68
2023/03/03 07:35:41;;;;;;;8.10;4.40;;;1.10;99.90;;;;;;4997892;28;20062;-67
2023/03/03 07:38:34;;;;;;;9.20;5.00;;;1.20;99.90;;;;;;5007264;28;20485;-68
2023/03/03 07:41:02;;;;;;;17.23;6.80;;;1.30;99.90;;;;;;5010381;28;20068;-68
2023/03/03 07:43:42;;;;;;;9.27;5.05;;;1.40;99.90;;;;;;5004952;28;20034;-68
2023/03/03 07:46:42;;;;;;;11.02;4.25;;;1.50;99.90;;;;;;5002578;28;20428;-68
2023/03/03 07:49:33;;;;;;;8.52;3.42;;;1.50;99.90;;;;;;5002233;28;20433;-68
2023/03/03 07:52:00;;;;;;;6.80;3.03;;;1.60;99.90;;;;;;5003089;28;20088;-68
2023/03/03 07:54:36;;;;;;;9.48;5.78;;;1.70;99.90;;;;;;5006924;28;20494;-68
2023/03/03 07:57:14;;;;;;;10.68;7.07;;;1.90;99.90;;;;;;4983799;28;20088;-68
2023/03/03 07:59:48;;;;;;;12.93;5.13;;;2.00;99.90;;;;;;5004842;28;20037;-68
2023/03/03 08:02:30;;;;;;;7.13;4.35;;;2.10;99.90;;;;;;5005292;28;20046;-68
2023/03/03 08:04:56;;;;;;;8.00;3.80;;;2.20;99.90;;;;;;5006028;28;20053;-67
2023/03/03 08:07:22;;;;;;;7.10;3.63;;;2.30;99.90;;;;;;5010338;28;20045;-68
2023/03/03 08:09:50;;;;;;;;;;;2.40;99.90;;;;;;5001137;28;20042;-67
2023/03/03 08:12:37;;;;;;;4.78;2.42;;;2.50;99.90;;;;;;4999346;28;20360;-67
2023/03/03 08:15:19;;;;;;;7.82;1.98;;;2.60;99.90;;;;;;4992279;28;20051;-67
2023/03/03 08:17:47;;;;;;;4.72;1.95;;;2.70;99.90;;;;;;5006762;28;20048;-68
2023/03/03 08:20:34;;;;;;;3.28;1.58;;;2.80;99.90;;;;;;5003231;28;20157;-67
2023/03/03 08:23:00;;;;;;;5.13;2.10;;;2.90;99.90;;;;;;5002669;28;20241;-67
2023/03/03 08:25:25;;;;;;;3.60;1.97;;;3.00;99.90;;;;;;5000428;28;20249;-68
2023/03/03 08:27:51;;;;;;;5.57;1.93;;;3.10;99.90;;;;;;5001194;28;20046;-67
2023/03/03 08:30:16;;;;;;;13.93;2.30;;;3.20;99.90;;;;;;4989171;28;20046;-68
2023/03/03 08:32:42;;;;;;;3.70;1.83;;;3.30;99.90;;;;;;5002098;28;20041;-68
2023/03/03 08:35:08;;;;;;;3.50;1.60;;;3.40;99.90;;;;;;5002902;28;20069;-67
2023/03/03 08:37:34;;;;;;;4.07;2.28;;;3.50;99.90;;;;;;5006295;28;20065;-67
2023/03/03 08:39:59;;;;;;;5.00;1.90;;;3.60;99.90;;;;;;5005144;28;20042;-67
2023/03/03 08:42:25;;;;;;;4.73;1.90;;;3.70;99.90;;;;;;4997542;28;20045;-67
2023/03/03 08:44:51;;;;;;;6.27;1.70;;;3.80;99.90;;;;;;5000799;28;20486;-67
2023/03/03 08:47:16;;;;;;;3.67;2.07;;;3.90;99.90;;;;;;5006574;28;20509;-67
2023/03/03 08:49:42;;;;;;;6.40;2.70;;;4.00;99.90;;;;;;5014308;28;20040;-67
2023/03/03 08:52:07;;;;;;;4.67;2.03;;;4.20;99.90;;;;;;5010589;28;20069;-67
2023/03/03 08:54:33;;;;;;;7.77;2.13;;;4.30;99.90;;;;;;5010427;28;20121;-67
2023/03/03 08:56:59;;;;;;;3.27;1.80;;;4.50;99.90;;;;;;5007717;28;20038;-67
2023/03/03 08:59:24;;;;;;;4.10;1.77;;;4.70;99.90;;;;;;5008304;28;20034;-67
2023/03/03 09:01:50;;;;;;;7.60;2.23;;;4.80;99.90;;;;;;5002066;28;20046;-67
2023/03/03 09:04:16;;;;;;;6.30;1.60;;;4.90;99.90;;;;;;5018607;28;20048;-68
2023/03/03 09:06:41;;;;;;;3.67;1.77;;;5.10;99.90;;;;;;5006844;28;20682;-67
2023/03/03 09:09:07;;;;;;;6.97;1.43;;;5.20;99.90;;;;;;5007048;28;20046;-67
2023/03/03 09:11:33;;;;;;;4.97;1.40;;;5.20;99.90;;;;;;5007349;28;20454;-67
2023/03/03 09:14:12;;;;;;;4.27;1.20;;;5.40;99.90;;;;;;5008164;28;20045;-67
2023/03/03 09:16:49;;;;;;;2.65;1.05;;;5.40;99.90;;;;;;5007186;28;20061;-67
2023/03/03 09:19:29;;;;;;;3.53;1.65;;;5.50;99.90;;;;;;5009348;28;20046;-67
2023/03/03 09:22:14;;;;;;;4.80;1.10;;;5.60;99.90;;;;;;4995733;28;20413;-67
2023/03/03 09:24:41;;;;;;;4.60;1.90;;;5.70;99.90;;;;;;5004498;28;20054;-68
2023/03/03 09:27:18;;;;;;;3.13;1.33;;;5.80;99.90;;;;;;5007033;28;20049;-66
2023/03/03 09:29:44;;;;;;;1.70;1.10;;;5.90;99.90;;;;;;4997886;28;20045;-68
2023/03/03 09:32:30;;;;;;;2.40;0.95;;;6.00;99.90;;;;;;5009819;28;20048;-67
2023/03/03 09:34:56;;;;;;;3.70;1.00;;;6.10;99.90;;;;;;5021589;28;20409;-67
2023/03/03 09:37:26;;;;;;;1.90;0.83;;;6.20;99.90;;;;;;5006488;28;20069;-68
2023/03/03 09:39:58;;;;;;;3.00;1.10;;;6.30;99.90;;;;;;5007767;28;20038;-67
2023/03/03 09:42:36;;;;;;;3.22;0.95;;;6.40;99.90;;;;;;5002581;28;20058;-68
2023/03/03 09:45:18;;;;;;;3.40;0.98;;;6.50;99.90;;;;;;5012242;28;20174;-68
2023/03/03 09:47:54;;;;;;;3.00;0.85;;;6.60;99.90;;;;;;5010822;28;20041;-68
2023/03/03 09:50:47;;;;;;;1.90;0.50;;;6.70;99.90;;;;;;5011766;28;20048;-68
2023/03/03 09:53:52;;;;;;;1.38;0.60;;;6.90;99.90;;;;;;5008668;28;20092;-67
2023/03/03 09:56:30;;;;;;;1.20;0.43;;;7.20;99.90;;;;;;5006817;28;20050;-68
2023/03/03 09:59:02;;;;;;;4.82;0.80;;;7.20;99.90;;;;;;5003306;28;20054;-67
2023/03/03 10:01:30;;;;;;;1.23;0.45;;;7.20;99.90;;;;;;5004071;28;20325;-67
2023/03/03 10:04:02;;;;;;;2.38;0.55;;;7.10;99.90;;;;;;5000364;28;20136;-67
2023/03/03 10:06:38;;;;;;;1.33;0.50;;;7.10;99.90;;;;;;5020839;23;20124;-67
2023/03/03 10:09:40;;;;;;;1.00;0.40;;;7.00;99.90;;;;;;5038837;28;20135;-67
2023/03/03 10:12:44;;;;;;;2.03;0.40;;;6.90;99.90;;;;;;5029937;28;20041;-67
2023/03/03 10:15:31;;;;;;;7.68;1.02;;;6.90;99.90;;;;;;5026659;28;20346;-67
2023/03/03 10:18:15;;;;;;;0.98;0.45;;;6.90;99.90;;;;;;5025178;28;20071;-68
2023/03/03 10:20:46;;;;;;;3.72;0.93;;;7.00;99.90;;;;;;5030802;28;20045;-67
2023/03/03 10:23:24;;;;;;;2.42;0.60;;;7.10;99.90;;;;;;5022361;28;20460;-67
2023/03/03 10:25:52;;;;;;;2.45;0.50;;;7.40;99.90;;;;;;5026419;28;20120;-67
2023/03/03 10:29:05;;;;;;;1.30;0.40;;;7.60;99.90;;;;;;5031825;28;20053;-67
2023/03/03 10:32:09;;;;;;;4.05;0.65;;;7.80;99.90;;;;;;5002515;28;20080;-67
2023/03/03 10:34:43;;;;;;;2.22;0.38;;;7.80;99.90;;;;;;5031050;28;20068;-67
2023/03/03 10:37:15;;;;;;;1.48;0.57;;;7.80;99.90;;;;;;5031695;28;20044;-67
2023/03/03 10:39:46;;;;;;;3.33;0.60;;;7.80;99.90;;;;;;5029534;28;20045;-67
2023/03/03 10:42:33;;;;;;;2.50;0.50;;;7.80;99.90;;;;;;5025467;28;20204;-67
2023/03/03 10:45:26;;;;;;;1.13;0.50;;;7.80;99.90;;;;;;5029346;28;20053;-67
2023/03/03 10:48:08;;;;;;;1.90;0.32;;;7.80;99.90;;;;;;5033218;28;20049;-67
2023/03/03 10:50:42;;;;;;;2.28;0.40;;;7.80;99.90;;;;;;5031296;28;20609;-67
2023/03/03 10:53:30;;;;;;;1.20;0.40;;;7.90;99.90;;;;;;5029819;28;20049;-67
2023/03/03 10:56:38;;;;;;;3.70;0.60;;;7.80;99.90;;;;;;5024207;28;20057;-68
2023/03/03 10:59:27;;;;;;;5.18;0.50;;;7.80;99.90;;;;;;5047228;28;20057;-67
2023/03/03 11:01:58;;;;;;;0.57;0.25;;;7.90;99.90;;;;;;5026403;28;20474;-67
2023/03/03 11:04:51;;;;;;;2.63;0.60;;;7.80;99.90;;;;;;5009034;28;20511;-68
2023/03/03 11:07:35;;;;;;;0.77;0.30;;;7.80;99.90;;;;;;5028430;28;20047;-67
2023/03/03 11:10:15;;;;;;;1.95;0.63;;;7.80;99.90;;;;;;5038237;28;20075;-67
2023/03/03 11:12:58;;;;;;;2.25;0.57;;;7.70;99.90;;;;;;5035218;28;20041;-67
2023/03/03 11:16:09;;;;;;;2.33;0.38;;;7.80;99.90;;;;;;5025924;28;20452;-67
2023/03/03 11:18:46;;;;;;;0.65;0.30;;;7.80;99.90;;;;;;5030659;28;20045;-67
2023/03/03 11:21:28;;;;;;;0.75;0.35;;;7.70;99.90;;;;;;5037252;28;20110;-67
2023/03/03 11:24:14;;;;;;;1.42;0.32;;;7.60;99.90;;;;;;5049995;28;20336;-67
2023/03/03 11:26:51;;;;;;;4.88;0.63;;;7.60;99.90;;;;;;5027636;28;20441;-68
2023/03/03 11:29:26;;;;;;;2.22;0.50;;;7.70;99.90;;;;;;5035305;28;20497;-68
2023/03/03 11:32:03;;;;;;;2.47;0.50;;;8.00;99.90;;;;;;5049598;28;20048;-67
2023/03/03 11:34:54;;;;;;;4.88;0.60;;;8.40;99.90;;;;;;5036281;28;20120;-67
2023/03/03 11:37:22;;;;;;;2.83;0.45;;;8.60;99.90;;;;;;5031300;28;20400;-67
2023/03/03 11:39:52;;;;;;;1.42;0.95;;;8.70;99.90;;;;;;5030396;28;20225;-67
2023/03/03 11:42:31;;;;;;;6.60;1.05;;;8.60;99.90;;;;;;5032822;28;20059;-68
2023/03/03 11:45:10;;;;;;;4.45;0.50;;;8.60;99.90;;;;;;5031652;28;20364;-67
2023/03/03 11:47:47;;;;;;;0.45;0.40;;;8.50;99.90;;;;;;5033207;28;20309;-67
2023/03/03 11:50:22;;;;;;;2.47;0.55;;;8.50;99.90;;;;;;5028626;28;20125;-67
2023/03/03 11:52:53;;;;;;;2.67;0.88;;;8.50;99.90;;;;;;5050188;28;20044;-67
2023/03/03 11:55:39;;;;;;;1.30;0.43;;;8.50;99.90;;;;;;5028467;28;20062;-68
2023/03/03 11:58:23;;;;;;;5.93;1.20;;;8.40;99.90;;;;;;5028419;28;20477;-68
2023/03/03 12:01:00;;;;;;;2.28;0.77;;;8.40;99.90;;;;;;5037453;28;20067;-68
2023/03/03 12:03:59;;;;;;;2.40;0.75;;;8.30;99.90;;;;;;5033831;28;20563;-67
2023/03/03 12:06:31;;;;;;;1.77;0.47;;;8.30;99.90;;;;;;5027126;28;20049;-68
2023/03/03 12:09:02;;;;;;;5.22;0.70;;;8.40;99.90;;;;;;5023828;28;20044;-67
2023/03/03 12:11:36;;;;;;;3.00;1.10;;;8.50;99.90;;;;;;5016975;28;20440;-68
2023/03/03 12:14:15;;;;;;;1.10;0.40;;;8.60;99.90;;;;;;5022815;28;20129;-67
2023/03/03 12:16:56;;;;;;;2.60;0.60;;;8.70;99.90;;;;;;5028794;28;20084;-68
2023/03/03 12:19:34;;;;;;;5.65;0.60;;;8.70;99.90;;;;;;5022308;28;20204;-68
2023/03/03 12:22:20;;;;;;;4.18;0.77;;;8.80;99.90;;;;;;5047671;28;20068;-68
2023/03/03 12:24:57;;;;;;;7.82;0.70;;;8.80;99.90;;;;;;5033948;28;20040;-67
2023/03/03 12:27:34;;;;;;;3.83;0.65;;;9.00;99.90;;;;;;5034776;28;20099;-68
2023/03/03 12:30:26;;;;;;;4.60;0.68;;;9.00;99.90;;;;;;5032770;28;20049;-67
2023/03/03 12:33:18;;;;;;;2.47;0.65;;;9.00;99.90;;;;;;5031819;28;20045;-69
2023/03/03 12:35:47;;;;;;;4.05;0.60;;;9.00;99.90;;;;;;5016088;28;20057;-68
2023/03/03 12:38:30;;;;;;;2.72;0.75;;;8.90;99.90;;;;;;5021866;28;20069;-69
2023/03/03 12:41:00;;;;;;;8.02;0.82;;;8.80;99.90;;;;;;5035874;28;20128;-69
2023/03/03 12:43:44;;;;;;;3.97;0.80;;;8.80;99.90;;;;;;5025904;28;20071;-69
2023/03/03 12:46:32;;;;;;;5.40;1.10;;;8.90;99.90;;;;;;5011478;28;20072;-69
2023/03/03 12:48:57;;;;;;;;;;;9.00;99.90;;;;;;5039017;28;20480;-69
2023/03/03 12:51:54;;;;;;;5.15;1.08;;;9.00;99.90;;;;;;5026971;28;19959;-69
2023/03/03 12:54:33;;;;;;;2.60;0.60;;;9.00;99.90;;;;;;5031416;28;20098;-69
2023/03/03 12:57:15;;;;;;;7.55;0.85;;;8.90;99.90;;;;;;5029474;28;20287;-69
2023/03/03 13:00:19;;;;;;;3.17;0.70;;;8.90;99.90;;;;;;5030794;28;20098;-69
2023/03/03 13:03:20;;;;;;;5.05;1.15;;;9.00;99.90;;;;;;4986199;28;20068;-69
2023/03/03 13:06:38;;;;;;;3.67;1.05;;;9.00;99.90;;;;;;5029000;28;20129;-69
2023/03/03 13:09:28;;;;;;;4.15;1.70;;;9.00;99.90;;;;;;5003689;28;20231;-69
2023/03/03 13:12:17;;;;;;;4.05;0.85;;;9.00;99.90;;;;;;4991275;28;20138;-69
2023/03/03 13:14:55;;;;;;;1.42;0.82;;;8.90;99.90;;;;;;5024953;28;20055;-69
2023/03/03 13:17:52;;;;;;;4.47;1.05;;;8.90;99.90;;;;;;5029306;28;20205;-69
2023/03/03 13:20:18;;;;;;;4.37;0.80;;;8.90;99.90;;;;;;5006242;28;20152;-68
2023/03/03 13:23:06;;;;;;;8.93;1.43;;;8.70;99.90;;;;;;5047569;28;20041;-69
2023/03/03 13:25:56;;;;;;;7.28;0.88;;;8.60;99.90;;;;;;5030423;28;20072;-69